Time;durP1;ratioP1;P1;durP2;ratioP2;P2;SDS_P1;SDS_P2;PMS_P1;PMS_P2;Temp;Humidity;BMP_temperature;BMP_pressure;BME280_temperature;BME280_humidity;BME280_pressure;Samples;Min_cycle;Max_cycle;Signal;HPM_P1;HPM_P2
2023/01/02 00:01:58;;;;;;;15.55;13.43;;;10.70;99.90;;;;;;4953257;28;20490;-79
2023/01/02 00:04:24;;;;;;;16.13;13.95;;;10.70;99.90;;;;;;4957510;28;20042;-78
2023/01/02 00:06:50;;;;;;;18.02;15.68;;;10.60;99.90;;;;;;4972435;28;20064;-78
2023/01/02 00:09:19;;;;;;;18.67;15.93;;;10.70;99.90;;;;;;4958817;28;20078;-79
2023/01/02 00:11:45;;;;;;;17.42;14.90;;;10.70;99.90;;;;;;4972691;28;20070;-78
2023/01/02 00:14:10;;;;;;;19.90;15.90;;;10.70;99.90;;;;;;4974466;28;20108;-78
2023/01/02 00:16:36;;;;;;;17.63;15.10;;;10.70;99.90;;;;;;4956117;28;20057;-79
2023/01/02 00:19:02;;;;;;;22.75;17.73;;;10.70;99.90;;;;;;4960060;28;20045;-78
2023/01/02 00:21:28;;;;;;;20.90;16.10;;;10.70;99.90;;;;;;4973919;28;20141;-78
2023/01/02 00:23:54;;;;;;;19.80;15.13;;;10.70;99.90;;;;;;4990493;28;20041;-79
2023/01/02 00:26:20;;;;;;;23.67;17.88;;;10.70;99.90;;;;;;4972082;28;20176;-79
2023/01/02 00:28:45;;;;;;;20.85;16.95;;;10.70;99.90;;;;;;4974118;28;20041;-81
2023/01/02 00:31:12;;;;;;;21.35;17.77;;;10.70;99.90;;;;;;4972264;28;20076;-79
2023/01/02 00:33:38;;;;;;;21.88;18.30;;;10.80;99.90;;;;;;4973397;28;20128;-79
2023/01/02 00:36:10;;;;;;;22.73;18.75;;;10.80;99.90;;;;;;4987843;28;20124;-79
2023/01/02 00:38:36;;;;;;;25.27;20.80;;;10.80;99.90;;;;;;4988667;28;20050;-77
2023/01/02 00:41:03;;;;;;;25.85;21.63;;;10.80;99.90;;;;;;4973290;28;20046;-79
2023/01/02 00:43:29;;;;;;;33.20;24.38;;;10.80;99.90;;;;;;4957141;28;20047;-80
2023/01/02 00:45:55;;;;;;;25.90;21.83;;;10.80;99.90;;;;;;4973026;28;20041;-79
2023/01/02 00:48:21;;;;;;;25.05;21.25;;;10.80;99.90;;;;;;4973790;28;20058;-79
2023/01/02 00:50:49;;;;;;;37.63;27.98;;;10.80;99.90;;;;;;4987756;28;20038;-79
2023/01/02 00:53:16;;;;;;;26.92;23.77;;;10.80;99.90;;;;;;4953244;28;20161;-78
2023/01/02 00:55:45;;;;;;;27.90;24.17;;;10.80;99.90;;;;;;4972964;28;20484;-78
2023/01/02 00:58:11;;;;;;;31.88;26.48;;;10.80;99.90;;;;;;4989561;28;20062;-79
2023/01/02 01:00:37;;;;;;;35.35;28.42;;;10.80;99.90;;;;;;4972251;28;20053;-79
2023/01/02 01:03:03;;;;;;;35.58;28.23;;;10.90;99.90;;;;;;4972035;28;20038;-79
2023/01/02 01:05:29;;;;;;;33.08;29.52;;;10.90;99.90;;;;;;4972174;28;20107;-78
2023/01/02 01:07:56;;;;;;;34.80;29.23;;;10.90;99.90;;;;;;4989051;28;20042;-78
2023/01/02 01:10:24;;;;;;;38.28;30.38;;;10.90;99.90;;;;;;4967793;28;20046;-79
2023/01/02 01:12:50;;;;;;;35.13;29.73;;;10.90;99.90;;;;;;4956438;28;20049;-78
2023/01/02 01:15:17;;;;;;;36.08;30.10;;;10.90;99.90;;;;;;4972326;28;20052;-80
2023/01/02 01:17:42;;;;;;;37.60;29.70;;;10.90;99.90;;;;;;4968157;28;20125;-79
2023/01/02 01:20:17;;;;;;;38.17;29.33;;;10.90;99.90;;;;;;4954609;28;20121;-79
2023/01/02 01:22:43;;;;;;;40.42;30.60;;;10.90;99.90;;;;;;4989786;28;20125;-79
2023/01/02 01:25:09;;;;;;;37.08;27.50;;;10.90;99.90;;;;;;4970582;28;20029;-79
2023/01/02 01:27:37;;;;;;;36.05;28.20;;;11.00;99.90;;;;;;4954571;28;20053;-79
2023/01/02 01:30:08;;;;;;;47.42;31.20;;;11.00;99.90;;;;;;4987863;28;20128;-79
2023/01/02 01:32:33;;;;;;;;;;;11.00;99.90;;;;;;4956309;28;20045;-80
2023/01/02 01:34:59;;;;;;;33.08;26.05;;;11.00;99.90;;;;;;4972014;28;19921;-82
2023/01/02 01:37:28;;;;;;;32.85;26.10;;;11.00;99.90;;;;;;4988805;28;20103;-80
2023/01/02 01:39:54;;;;;;;32.70;26.35;;;11.00;99.90;;;;;;4940201;28;20077;-80
2023/01/02 01:42:20;;;;;;;28.67;25.35;;;11.00;99.90;;;;;;4955157;28;20085;-80
2023/01/02 01:44:55;;;;;;;34.22;27.73;;;11.00;99.90;;;;;;4965751;28;20042;-81
2023/01/02 01:47:39;;;;;;;37.30;27.27;;;11.00;99.90;;;;;;4952994;28;20117;-78
2023/01/02 01:50:20;;;;;;;32.22;26.02;;;11.10;99.90;;;;;;4968686;28;20046;-78
2023/01/02 01:53:14;;;;;;;30.65;25.23;;;11.00;99.90;;;;;;4985641;28;20069;-78
2023/01/02 01:55:46;;;;;;;29.15;23.83;;;11.10;99.90;;;;;;4985691;28;20046;-78
2023/01/02 01:58:40;;;;;;;29.90;23.27;;;11.10;99.90;;;;;;4964760;28;20057;-81
2023/01/02 02:01:06;;;;;;;27.75;24.13;;;11.10;99.90;;;;;;4969244;28;20052;-80
2023/01/02 02:03:34;;;;;;;34.00;26.02;;;11.10;99.90;;;;;;4972661;28;20046;-81
2023/01/02 02:06:02;;;;;;;26.05;22.05;;;11.10;99.90;;;;;;4972275;28;20137;-80
2023/01/02 02:08:36;;;;;;;27.13;22.23;;;11.20;99.90;;;;;;4988692;28;20544;-81
2023/01/02 02:11:03;;;;;;;25.17;22.35;;;11.20;99.90;;;;;;4988034;28;20049;-81
2023/01/02 02:13:31;;;;;;;28.83;22.58;;;11.20;99.90;;;;;;4984029;28;20041;-81
2023/01/02 02:16:02;;;;;;;27.15;21.70;;;11.20;99.90;;;;;;4985566;28;20100;-80
2023/01/02 02:18:40;;;;;;;26.25;23.33;;;11.20;99.90;;;;;;4970002;28;20106;-80
2023/01/02 02:21:21;;;;;;;27.88;21.45;;;11.20;99.90;;;;;;4987445;28;20085;-79
2023/01/02 02:24:09;;;;;;;31.15;22.52;;;11.20;99.90;;;;;;4984991;28;20444;-80
2023/01/02 02:27:00;;;;;;;27.67;21.38;;;11.20;99.90;;;;;;4985007;28;20124;-80
2023/01/02 02:29:53;;;;;;;27.85;21.17;;;11.20;99.90;;;;;;4985876;28;20053;-80
2023/01/02 02:32:31;;;;;;;28.70;21.58;;;11.20;99.90;;;;;;4984955;28;20053;-80
2023/01/02 02:35:37;;;;;;;32.38;23.17;;;11.20;99.90;;;;;;4984780;28;20046;-80
2023/01/02 02:38:24;;;;;;;28.88;20.33;;;11.20;99.90;;;;;;4985639;28;20085;-80
2023/01/02 02:41:01;;;;;;;30.60;21.25;;;11.20;99.90;;;;;;4985733;28;20077;-80
2023/01/02 02:43:27;;;;;;;26.40;21.15;;;11.20;99.90;;;;;;4985516;28;20103;-79
2023/01/02 02:46:04;;;;;;;25.55;20.23;;;11.20;99.90;;;;;;4986751;28;20128;-82
2023/01/02 02:48:53;;;;;;;24.85;19.27;;;11.20;99.90;;;;;;4971004;28;20536;-81
2023/01/02 02:51:23;;;;;;;28.42;18.80;;;11.20;99.90;;;;;;4968776;28;20084;-81
2023/01/02 02:53:55;;;;;;;25.90;18.60;;;11.30;99.90;;;;;;4970201;28;20390;-76
2023/01/02 02:56:23;;;;;;;27.15;19.63;;;11.30;99.90;;;;;;4965594;28;20046;-76
2023/01/02 02:58:50;;;;;;;27.10;20.30;;;11.30;99.90;;;;;;4986031;28;20472;-77
2023/01/02 03:01:17;;;;;;;26.85;20.58;;;11.30;99.90;;;;;;4986231;28;20050;-76
2023/01/02 03:03:46;;;;;;;26.67;19.88;;;11.30;99.90;;;;;;4973664;28;20263;-80
2023/01/02 03:06:20;;;;;;;21.55;17.70;;;11.20;99.90;;;;;;4961690;28;20042;-80
2023/01/02 03:08:56;;;;;;;23.60;18.17;;;11.20;99.90;;;;;;4969983;28;20054;-81
2023/01/02 03:11:26;;;;;;;24.38;17.17;;;11.30;99.90;;;;;;4967475;28;20046;-80
2023/01/02 03:14:04;;;;;;;22.75;17.08;;;11.30;99.90;;;;;;4993261;28;20085;-81
2023/01/02 03:16:40;;;;;;;20.23;17.05;;;11.30;99.90;;;;;;4982856;28;20120;-79
2023/01/02 03:19:34;;;;;;;24.10;17.85;;;11.30;99.90;;;;;;4952656;28;20108;-80
2023/01/02 03:22:15;;;;;;;21.63;16.85;;;11.30;99.90;;;;;;4984947;28;20044;-80
2023/01/02 03:24:43;;;;;;;21.63;16.63;;;11.30;99.90;;;;;;4985661;28;20159;-80
2023/01/02 03:27:14;;;;;;;20.60;16.27;;;11.30;99.90;;;;;;4961791;28;20076;-79
2023/01/02 03:29:49;;;;;;;27.17;18.30;;;11.40;99.90;;;;;;4984550;28;20048;-79
2023/01/02 03:32:21;;;;;;;26.95;17.88;;;11.30;99.90;;;;;;4970657;28;20053;-79
2023/01/02 03:34:53;;;;;;;23.98;17.27;;;11.40;99.90;;;;;;4984848;28;20141;-80
2023/01/02 03:37:29;;;;;;;27.98;18.35;;;11.40;99.90;;;;;;4945588;28;20465;-80
2023/01/02 03:39:59;;;;;;;22.45;17.30;;;11.40;99.90;;;;;;4969145;28;20156;-80
2023/01/02 03:42:26;;;;;;;25.30;18.30;;;11.40;99.90;;;;;;4970400;28;20203;-80
2023/01/02 03:45:36;;;;;;;23.50;16.92;;;11.40;99.90;;;;;;4987878;28;20079;-80
2023/01/02 03:48:36;;;;;;;26.38;17.80;;;11.40;99.90;;;;;;4971209;28;20054;-79
2023/01/02 03:51:03;;;;;;;24.30;17.97;;;11.40;99.90;;;;;;4989337;28;20064;-80
2023/01/02 03:53:32;;;;;;;20.73;16.33;;;11.40;99.90;;;;;;4973399;28;20038;-79
2023/01/02 03:56:22;;;;;;;21.55;16.83;;;11.40;99.90;;;;;;4971369;28;20559;-80
2023/01/02 03:59:03;;;;;;;;;;;11.40;99.90;;;;;;4986107;28;20050;-80
2023/01/02 04:01:39;;;;;;;;;;;11.40;99.90;;;;;;4971994;28;20489;-80
2023/01/02 04:04:44;;;;;;;24.88;18.35;;;11.40;99.90;;;;;;4985851;28;20186;-79
2023/01/02 04:07:49;;;;;;;24.35;18.10;;;11.40;99.90;;;;;;4985353;28;20121;-80
2023/01/02 04:10:15;;;;;;;23.90;17.45;;;11.40;99.90;;;;;;4950084;28;20086;-80
2023/01/02 04:12:45;;;;;;;22.95;18.08;;;11.40;99.90;;;;;;4969764;28;20209;-80
2023/01/02 04:15:14;;;;;;;22.60;17.42;;;11.40;99.90;;;;;;4987260;28;20405;-79
2023/01/02 04:18:04;;;;;;;26.05;17.88;;;11.40;99.90;;;;;;4971018;28;20054;-82
2023/01/02 04:20:36;;;;;;;24.10;18.45;;;11.40;99.90;;;;;;4968440;28;20448;-80
2023/01/02 04:23:15;;;;;;;24.52;17.65;;;11.40;99.90;;;;;;4986326;28;20389;-81
2023/01/02 04:25:51;;;;;;;25.52;18.55;;;11.40;99.90;;;;;;4968666;28;20046;-80
2023/01/02 04:28:25;;;;;;;24.85;19.00;;;11.40;99.90;;;;;;4985209;28;20104;-80
2023/01/02 04:31:12;;;;;;;23.45;17.23;;;11.40;99.90;;;;;;4970402;28;20141;-81
2023/01/02 04:33:44;;;;;;;25.35;19.45;;;11.50;99.90;;;;;;4982795;28;20555;-80
2023/01/02 04:36:12;;;;;;;23.45;18.02;;;11.50;99.90;;;;;;4968353;28;20500;-81
2023/01/02 04:38:40;;;;;;;26.65;19.30;;;11.50;99.90;;;;;;4986353;28;20588;-80
2023/01/02 04:41:06;;;;;;;23.08;18.77;;;11.50;99.90;;;;;;4985560;28;20077;-80
2023/01/02 04:43:32;;;;;;;24.67;18.10;;;11.50;99.90;;;;;;4968733;28;20057;-81
2023/01/02 04:45:58;;;;;;;27.25;18.40;;;11.50;99.90;;;;;;4968388;28;20038;-77
2023/01/02 04:48:23;;;;;;;24.42;17.50;;;11.60;99.90;;;;;;4966624;28;20581;-77
2023/01/02 04:50:49;;;;;;;25.45;17.48;;;11.60;99.90;;;;;;4983586;28;20045;-77
2023/01/02 04:53:15;;;;;;;24.88;17.65;;;11.60;99.90;;;;;;4967323;28;20046;-77
2023/01/02 04:55:41;;;;;;;23.25;17.38;;;11.60;99.90;;;;;;4966030;28;20045;-78
2023/01/02 04:58:07;;;;;;;20.85;16.02;;;11.60;99.90;;;;;;4987620;28;20077;-77
2023/01/02 05:00:33;;;;;;;23.08;17.30;;;11.70;99.90;;;;;;4946672;28;20038;-77
2023/01/02 05:03:03;;;;;;;25.35;17.27;;;11.70;99.90;;;;;;4960550;28;20046;-77
2023/01/02 05:05:29;;;;;;;21.45;17.13;;;11.70;99.90;;;;;;4969288;28;20042;-76
2023/01/02 05:07:58;;;;;;;22.08;15.75;;;11.70;99.90;;;;;;4969364;28;20065;-76
2023/01/02 05:10:24;;;;;;;22.05;15.95;;;11.70;99.90;;;;;;4969363;28;20038;-76
2023/01/02 05:12:50;;;;;;;21.77;17.45;;;11.70;99.90;;;;;;4970186;28;20136;-76
2023/01/02 05:15:19;;;;;;;20.70;15.80;;;11.70;99.90;;;;;;4983921;28;20124;-76
2023/01/02 05:17:45;;;;;;;23.15;16.13;;;11.70;99.90;;;;;;4970791;28;20105;-76
2023/01/02 05:20:13;;;;;;;22.42;16.30;;;11.70;99.90;;;;;;4984834;28;20042;-77
2023/01/02 05:25:27;;;;;;;23.83;16.08;;;11.80;99.90;;;;;;4978158;28;20093;-76
2023/01/02 05:27:56;;;;;;;22.33;16.83;;;11.80;99.90;;;;;;4950169;28;20074;-76
2023/01/02 05:30:22;;;;;;;23.25;16.98;;;11.80;99.90;;;;;;4968365;28;20400;-77
2023/01/02 05:32:51;;;;;;;23.90;17.45;;;11.70;99.90;;;;;;4986593;28;20519;-77
2023/01/02 05:35:17;;;;;;;22.85;16.60;;;11.70;99.90;;;;;;4983399;28;20404;-78
2023/01/02 05:37:43;;;;;;;22.75;17.95;;;11.70;99.90;;;;;;4952662;28;20057;-80
2023/01/02 05:40:09;;;;;;;20.98;16.15;;;11.70;99.90;;;;;;4985157;28;20125;-79
2023/01/02 05:42:35;;;;;;;23.63;18.58;;;11.70;99.90;;;;;;4969547;28;20038;-78
2023/01/02 05:45:01;;;;;;;23.15;17.08;;;11.70;99.90;;;;;;4951009;28;20107;-80
2023/01/02 05:47:27;;;;;;;25.27;17.42;;;11.80;99.90;;;;;;4953543;28;20152;-78
2023/01/02 05:49:53;;;;;;;22.05;17.42;;;11.80;99.90;;;;;;4951375;28;20089;-81
2023/01/02 05:52:18;;;;;;;25.73;18.25;;;11.80;99.90;;;;;;4953737;28;20044;-78
2023/01/02 05:54:44;;;;;;;25.83;19.00;;;11.80;99.90;;;;;;4968136;28;20493;-79
2023/01/02 05:57:10;;;;;;;23.27;18.25;;;11.80;99.90;;;;;;4968579;28;20081;-79
2023/01/02 05:59:36;;;;;;;25.77;17.77;;;11.90;99.90;;;;;;4961209;28;20049;-80
2023/01/02 06:02:02;;;;;;;24.10;18.23;;;11.90;99.90;;;;;;4956170;28;20038;-78
2023/01/02 06:04:28;;;;;;;21.63;17.98;;;11.90;99.90;;;;;;4954165;28;20109;-77
2023/01/02 06:06:53;;;;;;;24.20;19.27;;;11.90;99.90;;;;;;4968519;28;20046;-77
2023/01/02 06:09:22;;;;;;;31.83;20.27;;;11.90;99.90;;;;;;4950996;28;20129;-77
2023/01/02 06:11:48;;;;;;;26.30;18.25;;;11.90;99.90;;;;;;4975997;28;20123;-77
2023/01/02 06:14:17;;;;;;;26.17;19.20;;;11.90;99.90;;;;;;4956584;28;20058;-76
2023/01/02 06:16:43;;;;;;;23.00;18.13;;;11.90;99.90;;;;;;4970300;28;20050;-77
2023/01/02 06:19:09;;;;;;;23.55;18.90;;;11.90;99.90;;;;;;4960493;28;20535;-77
2023/01/02 06:21:37;;;;;;;24.50;19.17;;;11.90;99.90;;;;;;4956608;28;20054;-77
2023/01/02 06:24:03;;;;;;;29.05;20.15;;;11.90;99.90;;;;;;4988558;28;20294;-77
2023/01/02 06:26:30;;;;;;;27.50;17.40;;;11.90;99.90;;;;;;4971025;28;20041;-77
2023/01/02 06:28:56;;;;;;;24.15;18.73;;;11.90;99.90;;;;;;4956211;28;20046;-77
2023/01/02 06:31:25;;;;;;;28.65;19.05;;;11.90;99.90;;;;;;4960330;28;20096;-78
2023/01/02 06:33:58;;;;;;;20.48;17.30;;;12.00;99.90;;;;;;4970874;28;20050;-77
2023/01/02 06:36:32;;;;;;;27.98;19.80;;;11.90;99.90;;;;;;4954656;28;20054;-78
2023/01/02 06:38:58;;;;;;;20.13;17.02;;;11.90;99.90;;;;;;4955362;28;20072;-79
2023/01/02 06:41:33;;;;;;;17.52;14.40;;;11.90;99.90;;;;;;4972011;28;20053;-79
2023/01/02 06:43:58;;;;;;;22.38;17.52;;;11.90;99.90;;;;;;4972096;28;20546;-77
2023/01/02 06:46:24;;;;;;;23.45;17.50;;;11.90;99.90;;;;;;4970236;28;20041;-78
2023/01/02 06:48:50;;;;;;;19.52;16.55;;;11.90;99.90;;;;;;4987300;28;20038;-77
2023/01/02 06:51:21;;;;;;;19.02;14.38;;;12.00;99.90;;;;;;4973446;28;20042;-79
2023/01/02 06:53:48;;;;;;;15.38;13.68;;;12.00;99.90;;;;;;4985744;28;20043;-77
2023/01/02 06:56:16;;;;;;;19.05;15.52;;;12.00;99.90;;;;;;4948319;28;20508;-78
2023/01/02 06:58:43;;;;;;;20.77;15.90;;;12.00;99.90;;;;;;4988119;28;20065;-78
2023/01/02 07:01:11;;;;;;;16.92;14.73;;;12.00;99.90;;;;;;4974715;28;20077;-78
2023/01/02 07:03:37;;;;;;;13.30;11.40;;;12.10;99.90;;;;;;4988839;28;20507;-79
2023/01/02 07:06:21;;;;;;;16.00;14.20;;;12.10;99.90;;;;;;4973538;28;20089;-78
2023/01/02 07:08:47;;;;;;;10.85;9.70;;;12.00;99.90;;;;;;4938997;28;20038;-79
2023/01/02 07:11:20;;;;;;;8.23;6.78;;;12.00;99.90;;;;;;4955757;28;20052;-80
2023/01/02 07:13:47;;;;;;;5.68;4.50;;;12.00;99.90;;;;;;4967283;28;20041;-80
2023/01/02 07:16:16;;;;;;;4.07;3.28;;;11.90;99.90;;;;;;4954473;28;20049;-80
2023/01/02 07:18:42;;;;;;;4.20;1.63;;;11.80;99.90;;;;;;4969814;28;20049;-79
2023/01/02 07:21:09;;;;;;;2.17;1.40;;;11.70;99.90;;;;;;4953252;28;20050;-82
2023/01/02 07:23:36;;;;;;;3.25;1.90;;;11.50;99.90;;;;;;4990686;28;20041;-74
2023/01/02 07:26:04;;;;;;;3.50;2.30;;;11.30;99.90;;;;;;4958199;28;20128;-74
2023/01/02 07:28:34;;;;;;;3.42;2.63;;;11.20;99.90;;;;;;4957742;28;20053;-74
2023/01/02 07:31:03;;;;;;;4.68;3.13;;;11.10;99.90;;;;;;4972608;28;20061;-74
2023/01/02 07:33:29;;;;;;;4.53;3.83;;;11.10;99.90;;;;;;4974822;28;20526;-77
2023/01/02 07:36:00;;;;;;;6.20;5.10;;;11.00;99.90;;;;;;4975565;28;20132;-77
2023/01/02 07:38:26;;;;;;;5.88;5.32;;;10.90;99.90;;;;;;4972373;28;20053;-77
2023/01/02 07:40:52;;;;;;;8.20;7.40;;;10.80;99.90;;;;;;4990231;28;20523;-77
2023/01/02 07:43:19;;;;;;;8.93;8.13;;;10.80;99.90;;;;;;4974868;28;20042;-77
2023/01/02 07:45:44;;;;;;;11.35;9.63;;;10.70;99.90;;;;;;4974203;28;20507;-77
2023/01/02 07:48:10;;;;;;;10.65;9.55;;;10.60;99.90;;;;;;4990395;28;20030;-77
2023/01/02 07:50:36;;;;;;;13.48;11.43;;;10.60;99.90;;;;;;4974172;28;20054;-77
2023/01/02 07:53:02;;;;;;;11.73;9.35;;;10.50;99.90;;;;;;4973163;28;20484;-76
2023/01/02 07:55:27;;;;;;;11.93;9.88;;;10.50;99.90;;;;;;4972335;28;20504;-77
2023/01/02 07:57:53;;;;;;;11.27;7.82;;;10.40;99.90;;;;;;4972172;28;20054;-77
2023/01/02 08:00:20;;;;;;;11.23;7.50;;;10.40;99.90;;;;;;4989642;28;20544;-76
2023/01/02 08:02:48;;;;;;;11.63;7.70;;;10.30;99.90;;;;;;4987664;28;20224;-77
2023/01/02 08:05:15;;;;;;;9.55;6.43;;;10.20;99.90;;;;;;4973973;28;20128;-77
2023/01/02 08:07:43;;;;;;;7.57;5.28;;;10.10;99.90;;;;;;4958142;28;20267;-77
2023/01/02 08:10:10;;;;;;;7.97;5.53;;;10.00;99.90;;;;;;4989959;28;20048;-77
2023/01/02 08:12:36;;;;;;;7.10;5.38;;;9.90;99.90;;;;;;4970901;28;20413;-77
2023/01/02 08:15:02;;;;;;;6.97;4.78;;;9.90;99.90;;;;;;4988680;28;20046;-77
2023/01/02 08:17:30;;;;;;;7.45;4.25;;;9.80;99.90;;;;;;4988173;28;20135;-77
2023/01/02 08:19:59;;;;;;;9.32;4.95;;;9.70;99.90;;;;;;4956027;28;20069;-77
2023/01/02 08:22:27;;;;;;;8.82;4.75;;;9.60;99.90;;;;;;4972415;28;20383;-76
2023/01/02 08:24:53;;;;;;;8.27;4.57;;;9.50;99.90;;;;;;4972156;28;20046;-77
2023/01/02 08:27:19;;;;;;;7.75;3.78;;;9.50;99.90;;;;;;4973463;28;20045;-77
2023/01/02 08:29:45;;;;;;;7.05;3.50;;;9.40;99.90;;;;;;4974854;28;20060;-77
2023/01/02 08:32:10;;;;;;;5.65;2.65;;;9.40;99.90;;;;;;4976035;28;20076;-77
2023/01/02 08:34:37;;;;;;;4.47;1.98;;;9.40;99.90;;;;;;4959347;28;20151;-77
2023/01/02 08:37:06;;;;;;;3.67;1.52;;;9.40;99.90;;;;;;4991516;28;20056;-77
2023/01/02 08:39:32;;;;;;;3.17;1.17;;;9.30;99.90;;;;;;4957050;28;20046;-77
2023/01/02 08:41:58;;;;;;;5.32;1.77;;;9.20;99.90;;;;;;4972478;28;20041;-76
2023/01/02 08:44:23;;;;;;;2.40;1.30;;;9.20;99.90;;;;;;4972294;28;20563;-76
2023/01/02 08:46:50;;;;;;;3.25;1.48;;;9.10;99.90;;;;;;4984307;28;20227;-74
2023/01/02 08:49:16;;;;;;;4.15;1.88;;;9.10;99.90;;;;;;4971320;28;20052;-75
2023/01/02 08:51:41;;;;;;;6.75;2.55;;;9.10;99.90;;;;;;4982411;28;20093;-75
2023/01/02 08:54:07;;;;;;;5.03;2.40;;;9.10;99.90;;;;;;4972507;28;20046;-75
2023/01/02 08:56:34;;;;;;;5.05;2.95;;;8.90;99.90;;;;;;4973125;28;20045;-75
2023/01/02 08:59:09;;;;;;;7.10;3.22;;;9.00;99.90;;;;;;4982530;28;20070;-75
2023/01/02 09:01:35;;;;;;;6.40;3.38;;;9.00;99.90;;;;;;4986070;28;20038;-74
2023/01/02 09:04:01;;;;;;;6.53;3.38;;;9.00;99.90;;;;;;4956301;28;20114;-72
2023/01/02 09:06:30;;;;;;;5.40;3.08;;;9.00;99.90;;;;;;4972838;28;20042;-72
2023/01/02 09:09:00;;;;;;;5.32;2.97;;;9.00;99.90;;;;;;4971472;28;20103;-72
2023/01/02 09:11:27;;;;;;;;;;;9.00;99.90;;;;;;4984183;28;20137;-73
2023/01/02 09:13:54;;;;;;;6.63;3.35;;;8.90;99.90;;;;;;4972704;28;19961;-72
2023/01/02 09:16:21;;;;;;;5.50;3.70;;;8.90;99.90;;;;;;4985629;28;20054;-72
2023/01/02 09:18:47;;;;;;;6.90;3.63;;;8.90;99.90;;;;;;4971751;28;20053;-72
2023/01/02 09:21:13;;;;;;;6.90;4.10;;;8.90;99.90;;;;;;4967642;28;20132;-72
2023/01/02 09:23:39;;;;;;;6.85;3.90;;;8.90;99.90;;;;;;4980911;28;20136;-73
2023/01/02 09:26:10;;;;;;;6.28;4.30;;;8.90;99.90;;;;;;4971825;28;20076;-73
2023/01/02 09:28:36;;;;;;;6.88;4.15;;;8.90;99.90;;;;;;4977206;28;20064;-73
2023/01/02 09:31:06;;;;;;;7.63;4.03;;;8.90;99.90;;;;;;4988130;28;20050;-72
2023/01/02 09:33:33;;;;;;;7.05;4.40;;;8.90;99.90;;;;;;4951797;28;20046;-72
2023/01/02 09:36:03;;;;;;;5.82;4.03;;;8.90;99.90;;;;;;4973151;28;20076;-73
2023/01/02 09:38:29;;;;;;;7.40;4.95;;;8.90;99.90;;;;;;4962207;28;20567;-73
2023/01/02 09:40:57;;;;;;;7.07;4.93;;;8.90;99.90;;;;;;4958101;28;20112;-73
2023/01/02 09:43:49;;;;;;;7.97;4.80;;;8.90;99.90;;;;;;4987446;28;20560;-73
2023/01/02 09:46:36;;;;;;;6.63;4.72;;;8.90;99.90;;;;;;4986820;28;20568;-73
2023/01/02 09:49:02;;;;;;;6.95;4.55;;;9.00;99.90;;;;;;4988403;28;20087;-73
2023/01/02 09:51:29;;;;;;;5.90;4.18;;;8.90;99.90;;;;;;4976365;28;20035;-73
2023/01/02 09:53:55;;;;;;;5.80;4.25;;;9.00;99.90;;;;;;4967692;28;20042;-73
2023/01/02 09:56:35;;;;;;;8.50;4.05;;;9.00;99.90;;;;;;4989730;28;20056;-73
2023/01/02 09:59:01;;;;;;;6.22;4.10;;;9.00;99.90;;;;;;4978870;28;20411;-73
2023/01/02 10:01:55;;;;;;;6.63;3.28;;;9.00;99.90;;;;;;4972817;28;20104;-73
2023/01/02 10:04:48;;;;;;;5.63;3.35;;;9.00;99.90;;;;;;4957307;28;20062;-72
2023/01/02 10:07:39;;;;;;;6.00;3.35;;;9.00;99.90;;;;;;4969712;28;20031;-73
2023/01/02 10:10:08;;;;;;;5.03;3.10;;;9.00;99.90;;;;;;4963085;28;20043;-72
2023/01/02 10:12:55;;;;;;;5.78;3.28;;;9.00;99.90;;;;;;4969084;28;20141;-73
2023/01/02 10:15:26;;;;;;;5.97;3.03;;;9.00;99.90;;;;;;4979281;28;20046;-73
2023/01/02 10:17:57;;;;;;;8.02;3.67;;;9.00;99.90;;;;;;4964412;28;20108;-73
2023/01/02 10:20:29;;;;;;;5.97;3.38;;;9.00;99.90;;;;;;4963842;28;20055;-73
2023/01/02 10:23:26;;;;;;;8.20;4.20;;;9.00;99.90;;;;;;4970890;28;20058;-73
2023/01/02 10:26:01;;;;;;;6.22;3.85;;;9.00;99.90;;;;;;4977402;28;20116;-73
2023/01/02 10:28:34;;;;;;;10.23;4.55;;;9.00;99.90;;;;;;4962717;28;20058;-73
2023/01/02 10:31:14;;;;;;;6.85;3.70;;;9.00;99.90;;;;;;4977514;28;20046;-73
2023/01/02 10:33:49;;;;;;;5.47;3.20;;;9.00;99.90;;;;;;4964800;28;20043;-73
2023/01/02 10:36:23;;;;;;;8.52;5.40;;;9.00;99.90;;;;;;4979400;28;20042;-73
2023/01/02 10:38:50;;;;;;;6.72;4.50;;;9.00;99.90;;;;;;4979090;28;20050;-73
2023/01/02 10:41:19;;;;;;;6.20;3.22;;;9.00;99.90;;;;;;4975049;28;20128;-73
2023/01/02 10:43:52;;;;;;;5.53;2.90;;;9.00;99.90;;;;;;4954323;28;20089;-73
2023/01/02 10:46:18;;;;;;;5.68;3.00;;;9.00;99.90;;;;;;4966592;28;20046;-75
2023/01/02 10:48:44;;;;;;;4.57;2.60;;;8.90;99.90;;;;;;4984213;28;20058;-76
2023/01/02 10:51:14;;;;;;;5.05;2.58;;;9.00;99.90;;;;;;4982943;28;20050;-75
2023/01/02 10:53:40;;;;;;;7.32;2.55;;;9.00;99.90;;;;;;4982050;28;20053;-76
2023/01/02 10:56:17;;;;;;;6.50;2.55;;;9.00;99.90;;;;;;4986932;28;20039;-75
2023/01/02 10:58:48;;;;;;;8.13;3.20;;;9.00;99.90;;;;;;4985112;28;20046;-76
2023/01/02 11:01:19;;;;;;;7.95;3.80;;;9.00;99.90;;;;;;4953745;28;20034;-76
2023/01/02 11:04:05;;;;;;;5.72;3.70;;;9.00;99.90;;;;;;4987369;28;20042;-75
2023/01/02 11:06:31;;;;;;;5.85;3.60;;;9.10;99.90;;;;;;4965569;28;20049;-75
2023/01/02 11:09:02;;;;;;;7.50;3.97;;;9.10;99.90;;;;;;4988009;28;20050;-76
2023/01/02 11:11:30;;;;;;;8.43;4.25;;;9.20;99.90;;;;;;4967320;28;20042;-75
2023/01/02 11:14:05;;;;;;;7.15;4.20;;;9.10;99.90;;;;;;4963687;28;20051;-75
2023/01/02 11:16:36;;;;;;;10.23;4.18;;;9.20;99.90;;;;;;4979269;28;20055;-74
2023/01/02 11:19:06;;;;;;;7.15;3.63;;;9.20;99.90;;;;;;4987888;28;20042;-75
2023/01/02 11:21:35;;;;;;;9.00;3.63;;;9.20;99.90;;;;;;4969585;28;20054;-75
2023/01/02 11:24:24;;;;;;;7.68;4.05;;;9.20;99.90;;;;;;4987581;28;20518;-75
2023/01/02 11:26:51;;;;;;;8.93;3.80;;;9.30;99.90;;;;;;4970586;28;20051;-75
2023/01/02 11:29:25;;;;;;;6.45;3.85;;;9.30;99.90;;;;;;4969517;28;20061;-75
2023/01/02 11:31:55;;;;;;;9.38;4.55;;;9.30;99.90;;;;;;4987962;28;20050;-77
2023/01/02 11:34:31;;;;;;;9.27;3.45;;;9.30;99.90;;;;;;4985026;28;20142;-75
2023/01/02 11:37:03;;;;;;;8.95;3.53;;;9.30;99.90;;;;;;4969511;28;20061;-75
2023/01/02 11:39:32;;;;;;;6.20;3.30;;;9.30;99.90;;;;;;4988009;28;20038;-75
2023/01/02 11:45:12;;;;;;;8.20;3.15;;;9.20;99.90;;;;;;4942104;28;20516;-75
2023/01/02 11:47:51;;;;;;;7.55;3.58;;;9.20;99.90;;;;;;4976416;28;20999;-75
2023/01/02 11:50:37;;;;;;;7.80;3.10;;;9.20;99.90;;;;;;4976892;28;20112;-76
2023/01/02 11:53:11;;;;;;;10.40;3.65;;;9.20;99.90;;;;;;4957436;28;20144;-76
2023/01/02 11:55:58;;;;;;;8.95;3.35;;;9.20;99.90;;;;;;4958783;28;20066;-77
2023/01/02 11:58:32;;;;;;;9.75;3.75;;;9.20;99.90;;;;;;4989970;28;20053;-76
2023/01/02 12:01:29;;;;;;;7.57;3.50;;;9.10;99.90;;;;;;4964112;28;20061;-76
2023/01/02 12:03:55;;;;;;;9.05;3.40;;;9.20;99.90;;;;;;4986840;28;20084;-77
2023/01/02 12:06:29;;;;;;;7.80;2.70;;;9.20;99.90;;;;;;4966605;28;20054;-76
2023/01/02 12:09:28;;;;;;;9.85;3.22;;;9.20;99.90;;;;;;4971176;28;20049;-76
2023/01/02 12:12:02;;;;;;;10.75;2.60;;;9.20;99.90;;;;;;4988909;28;20508;-76
2023/01/02 12:14:48;;;;;;;9.82;2.63;;;9.30;99.90;;;;;;4990523;28;20042;-76
2023/01/02 12:17:42;;;;;;;10.75;3.28;;;9.30;99.90;;;;;;4981217;28;20056;-77
2023/01/02 12:20:27;;;;;;;8.93;3.45;;;9.30;99.90;;;;;;4968569;28;20041;-76
2023/01/02 12:23:11;;;;;;;9.32;3.40;;;9.30;99.90;;;;;;4986944;28;20049;-76
2023/01/02 12:25:50;;;;;;;9.45;4.03;;;9.40;99.90;;;;;;4987157;28;20491;-76
2023/01/02 12:28:35;;;;;;;9.57;3.33;;;9.40;99.90;;;;;;4987894;28;20038;-76
2023/01/02 12:31:33;;;;;;;10.23;3.50;;;9.40;99.90;;;;;;4986922;28;20508;-76
2023/01/02 12:34:20;;;;;;;10.13;3.30;;;9.40;99.90;;;;;;4949994;28;20107;-76
2023/01/02 12:37:05;;;;;;;9.77;2.85;;;9.30;99.90;;;;;;4988730;28;20045;-76
2023/01/02 12:40:03;;;;;;;9.00;2.95;;;9.40;99.90;;;;;;4988403;28;20038;-76
2023/01/02 12:42:44;;;;;;;10.13;3.28;;;9.40;99.90;;;;;;4973014;28;20041;-76
2023/01/02 12:45:39;;;;;;;12.82;3.35;;;9.40;99.90;;;;;;4984898;28;20117;-77
2023/01/02 12:48:33;;;;;;;9.68;2.90;;;9.50;99.90;;;;;;4957977;28;20061;-76
2023/01/02 12:51:21;;;;;;;9.18;2.90;;;9.50;99.90;;;;;;5003450;28;20133;-76
2023/01/02 12:54:11;;;;;;;9.13;2.38;;;9.50;99.90;;;;;;4985636;28;20052;-76
2023/01/02 12:56:50;;;;;;;;;;;9.50;99.90;;;;;;4988718;28;20121;-76
2023/01/02 12:59:25;;;;;;;9.98;3.03;;;9.50;99.90;;;;;;4989020;28;19921;-77
2023/01/02 13:02:28;;;;;;;13.32;3.30;;;9.40;99.90;;;;;;4973104;28;20046;-76
2023/01/02 13:05:01;;;;;;;13.80;2.75;;;9.50;99.90;;;;;;4963130;28;20485;-77
2023/01/02 13:07:52;;;;;;;11.23;2.55;;;9.50;99.90;;;;;;4989542;28;20041;-76
2023/01/02 13:10:25;;;;;;;10.38;2.35;;;9.50;99.90;;;;;;4983383;28;20046;-71
2023/01/02 13:12:55;;;;;;;10.23;2.33;;;9.50;99.90;;;;;;4986615;28;20526;-71